Airport ID:KN38
Update Time (UTC):12/11/2019 19:49
Wind Speed (Knots):10
Wind Direction (Magnetic):320
Temperature (°C):-5
Dew Point (°C):-11
Humidity (%):60
Altimeter (inHg):29.99
Density Altitude (Feet):
Visibility (Miles):10+
Clouds (Hundreds of feet):FEW024 BKN032 OVC048
Present Weather:UP
METAR:METAR KN38 121945Z AUTO 32012G17KT 4SM UP FEW024 BKN032 OVC040 M05/M11 A3000 RMK AO2

The data displayed is for advisory purposes only and is not to be used for flight planning or operations.

This page is not automatically refreshed. Reload the page to see current data.